sensor_id;sensor_type;location;lat;lon;timestamp;temperature;humidity
79140;HTU21D;68546;59.142;37.948;2023-04-01T00:01:20;0.98;59.48
79140;HTU21D;68546;59.142;37.948;2023-04-01T00:03:47;0.97;59.57
79140;HTU21D;68546;59.142;37.948;2023-04-01T00:06:16;0.97;59.59
79140;HTU21D;68546;59.142;37.948;2023-04-01T00:08:44;0.96;59.67
79140;HTU21D;68546;59.142;37.948;2023-04-01T00:11:10;0.94;59.70
79140;HTU21D;68546;59.142;37.948;2023-04-01T00:13:37;0.94;59.70
79140;HTU21D;68546;59.142;37.948;2023-04-01T00:16:04;0.94;59.76
79140;HTU21D;68546;59.142;37.948;2023-04-01T00:18:30;0.92;59.67
79140;HTU21D;68546;59.142;37.948;2023-04-01T00:20:56;0.91;59.67
79140;HTU21D;68546;59.142;37.948;2023-04-01T00:23:23;0.90;59.61
79140;HTU21D;68546;59.142;37.948;2023-04-01T00:25:49;0.88;59.59
79140;HTU21D;68546;59.142;37.948;2023-04-01T00:28:17;0.84;59.62
79140;HTU21D;68546;59.142;37.948;2023-04-01T00:30:44;0.84;59.61
79140;HTU21D;68546;59.142;37.948;2023-04-01T00:33:11;0.81;59.61
79140;HTU21D;68546;59.142;37.948;2023-04-01T00:35:37;0.80;59.67
79140;HTU21D;68546;59.142;37.948;2023-04-01T00:38:04;0.78;59.70
79140;HTU21D;68546;59.142;37.948;2023-04-01T00:40:35;0.78;59.80
79140;HTU21D;68546;59.142;37.948;2023-04-01T00:43:03;0.75;59.85
79140;HTU21D;68546;59.142;37.948;2023-04-01T00:45:38;0.75;59.87
79140;HTU21D;68546;59.142;37.948;2023-04-01T00:48:10;0.73;60.02
79140;HTU21D;68546;59.142;37.948;2023-04-01T00:50:38;0.71;60.00
79140;HTU21D;68546;59.142;37.948;2023-04-01T00:53:07;0.71;60.09
79140;HTU21D;68546;59.142;37.948;2023-04-01T00:55:39;0.69;60.17
79140;HTU21D;68546;59.142;37.948;2023-04-01T00:58:10;0.69;60.27
79140;HTU21D;68546;59.142;37.948;2023-04-01T01:00:38;0.69;60.25
79140;HTU21D;68546;59.142;37.948;2023-04-01T01:03:04;0.71;60.34
79140;HTU21D;68546;59.142;37.948;2023-04-01T01:08:37;0.67;60.12
79140;HTU21D;68546;59.142;37.948;2023-04-01T01:11:08;0.67;60.15
79140;HTU21D;68546;59.142;37.948;2023-04-01T01:13:53;0.66;60.16
79140;HTU21D;68546;59.142;37.948;2023-04-01T01:16:47;0.64;60.18
79140;HTU21D;68546;59.142;37.948;2023-04-01T01:27:22;0.60;60.29
79140;HTU21D;68546;59.142;37.948;2023-04-01T01:35:49;0.53;60.12
79140;HTU21D;68546;59.142;37.948;2023-04-01T01:38:23;0.51;60.16
79140;HTU21D;68546;59.142;37.948;2023-04-01T01:41:03;0.49;60.22
79140;HTU21D;68546;59.142;37.948;2023-04-01T01:43:33;0.46;60.26
79140;HTU21D;68546;59.142;37.948;2023-04-01T01:46:06;0.45;60.29
79140;HTU21D;68546;59.142;37.948;2023-04-01T01:48:34;0.43;60.25
79140;HTU21D;68546;59.142;37.948;2023-04-01T01:51:03;0.39;60.23
79140;HTU21D;68546;59.142;37.948;2023-04-01T01:53:30;0.36;60.33
79140;HTU21D;68546;59.142;37.948;2023-04-01T01:55:56;0.33;60.41
79140;HTU21D;68546;59.142;37.948;2023-04-01T01:58:44;0.31;60.55
79140;HTU21D;68546;59.142;37.948;2023-04-01T02:01:17;0.29;60.57
79140;HTU21D;68546;59.142;37.948;2023-04-01T02:03:47;0.24;60.64
79140;HTU21D;68546;59.142;37.948;2023-04-01T02:06:19;0.24;60.96
79140;HTU21D;68546;59.142;37.948;2023-04-01T02:08:57;0.22;60.89
79140;HTU21D;68546;59.142;37.948;2023-04-01T02:11:32;0.19;61.05
79140;HTU21D;68546;59.142;37.948;2023-04-01T02:16:49;0.16;61.25
79140;HTU21D;68546;59.142;37.948;2023-04-01T02:19:17;0.15;61.53
79140;HTU21D;68546;59.142;37.948;2023-04-01T02:21:55;0.12;61.48
79140;HTU21D;68546;59.142;37.948;2023-04-01T02:24:26;0.10;61.54
79140;HTU21D;68546;59.142;37.948;2023-04-01T02:26:53;0.08;61.66
79140;HTU21D;68546;59.142;37.948;2023-04-01T02:29:21;0.07;61.70
79140;HTU21D;68546;59.142;37.948;2023-04-01T02:31:50;0.05;61.71
79140;HTU21D;68546;59.142;37.948;2023-04-01T02:34:18;0.03;61.83
79140;HTU21D;68546;59.142;37.948;2023-04-01T02:36:47;0.02;62.03
79140;HTU21D;68546;59.142;37.948;2023-04-01T02:39:14;-0.01;62.25
79140;HTU21D;68546;59.142;37.948;2023-04-01T02:41:43;-0.03;62.30
79140;HTU21D;68546;59.142;37.948;2023-04-01T02:44:10;-0.07;62.29
79140;HTU21D;68546;59.142;37.948;2023-04-01T02:46:37;-0.08;62.37
79140;HTU21D;68546;59.142;37.948;2023-04-01T02:49:05;-0.09;62.79
79140;HTU21D;68546;59.142;37.948;2023-04-01T02:51:32;-0.12;62.90
79140;HTU21D;68546;59.142;37.948;2023-04-01T02:53:59;-0.13;63.05
79140;HTU21D;68546;59.142;37.948;2023-04-01T02:56:25;-0.15;62.95
79140;HTU21D;68546;59.142;37.948;2023-04-01T02:58:53;-0.17;63.27
79140;HTU21D;68546;59.142;37.948;2023-04-01T03:01:20;-0.19;63.47
79140;HTU21D;68546;59.142;37.948;2023-04-01T03:03:46;-0.19;63.35
79140;HTU21D;68546;59.142;37.948;2023-04-01T03:06:14;-0.21;63.50
79140;HTU21D;68546;59.142;37.948;2023-04-01T03:08:42;-0.23;63.53
79140;HTU21D;68546;59.142;37.948;2023-04-01T03:11:09;-0.21;63.60
79140;HTU21D;68546;59.142;37.948;2023-04-01T03:13:36;-0.21;63.69
79140;HTU21D;68546;59.142;37.948;2023-04-01T03:16:06;-0.20;63.71
79140;HTU21D;68546;59.142;37.948;2023-04-01T03:18:33;-0.19;63.96
79140;HTU21D;68546;59.142;37.948;2023-04-01T03:21:20;-0.16;63.93
79140;HTU21D;68546;59.142;37.948;2023-04-01T03:23:47;-0.14;63.92
79140;HTU21D;68546;59.142;37.948;2023-04-01T03:26:13;-0.13;64.03
79140;HTU21D;68546;59.142;37.948;2023-04-01T03:28:41;-0.11;64.22
79140;HTU21D;68546;59.142;37.948;2023-04-01T03:31:07;-0.09;64.18
79140;HTU21D;68546;59.142;37.948;2023-04-01T03:33:40;-0.06;64.33
79140;HTU21D;68546;59.142;37.948;2023-04-01T03:36:10;-0.03;64.34
79140;HTU21D;68546;59.142;37.948;2023-04-01T03:38:40;-0.00;64.52
79140;HTU21D;68546;59.142;37.948;2023-04-01T03:41:16;0.03;64.50
79140;HTU21D;68546;59.142;37.948;2023-04-01T03:43:44;0.06;64.60
79140;HTU21D;68546;59.142;37.948;2023-04-01T03:46:10;0.12;64.81
79140;HTU21D;68546;59.142;37.948;2023-04-01T03:48:37;0.19;64.88
79140;HTU21D;68546;59.142;37.948;2023-04-01T03:51:07;0.24;64.92
79140;HTU21D;68546;59.142;37.948;2023-04-01T03:53:34;0.32;64.98
79140;HTU21D;68546;59.142;37.948;2023-04-01T03:56:05;0.40;65.07
79140;HTU21D;68546;59.142;37.948;2023-04-01T03:58:33;0.50;65.06
79140;HTU21D;68546;59.142;37.948;2023-04-01T04:01:20;0.60;64.92
79140;HTU21D;68546;59.142;37.948;2023-04-01T04:03:50;0.67;64.73
79140;HTU21D;68546;59.142;37.948;2023-04-01T04:06:18;0.71;64.53
79140;HTU21D;68546;59.142;37.948;2023-04-01T04:08:46;0.75;64.41
79140;HTU21D;68546;59.142;37.948;2023-04-01T04:11:13;0.78;64.18
79140;HTU21D;68546;59.142;37.948;2023-04-01T04:13:43;0.80;64.11
79140;HTU21D;68546;59.142;37.948;2023-04-01T04:16:10;0.83;64.17
79140;HTU21D;68546;59.142;37.948;2023-04-01T04:18:45;0.89;64.16
79140;HTU21D;68546;59.142;37.948;2023-04-01T04:21:13;0.95;64.20
79140;HTU21D;68546;59.142;37.948;2023-04-01T04:23:41;1.01;64.28
79140;HTU21D;68546;59.142;37.948;2023-04-01T04:26:10;1.08;64.17
79140;HTU21D;68546;59.142;37.948;2023-04-01T04:28:37;1.13;64.12
79140;HTU21D;68546;59.142;37.948;2023-04-01T04:31:04;1.18;64.12
79140;HTU21D;68546;59.142;37.948;2023-04-01T04:33:40;1.26;64.12
79140;HTU21D;68546;59.142;37.948;2023-04-01T04:36:08;1.31;64.01
79140;HTU21D;68546;59.142;37.948;2023-04-01T04:38:34;1.38;64.02
79140;HTU21D;68546;59.142;37.948;2023-04-01T04:41:00;1.42;63.97
79140;HTU21D;68546;59.142;37.948;2023-04-01T04:43:27;1.47;63.98
79140;HTU21D;68546;59.142;37.948;2023-04-01T04:45:54;1.51;64.07
79140;HTU21D;68546;59.142;37.948;2023-04-01T04:48:21;1.56;63.93
79140;HTU21D;68546;59.142;37.948;2023-04-01T04:50:50;1.60;63.73
79140;HTU21D;68546;59.142;37.948;2023-04-01T04:53:19;1.61;63.71
79140;HTU21D;68546;59.142;37.948;2023-04-01T04:55:48;1.64;63.89
79140;HTU21D;68546;59.142;37.948;2023-04-01T04:58:31;1.70;64.00
79140;HTU21D;68546;59.142;37.948;2023-04-01T05:00:58;1.75;63.90
79140;HTU21D;68546;59.142;37.948;2023-04-01T05:03:29;1.79;63.73
79140;HTU21D;68546;59.142;37.948;2023-04-01T05:05:56;1.81;63.62
79140;HTU21D;68546;59.142;37.948;2023-04-01T05:08:25;1.84;63.55
79140;HTU21D;68546;59.142;37.948;2023-04-01T05:10:52;1.88;63.61
79140;HTU21D;68546;59.142;37.948;2023-04-01T05:13:18;1.92;63.64
79140;HTU21D;68546;59.142;37.948;2023-04-01T05:15:47;1.97;63.62
79140;HTU21D;68546;59.142;37.948;2023-04-01T05:18:13;2.01;63.47
79140;HTU21D;68546;59.142;37.948;2023-04-01T05:20:50;2.06;63.53
79140;HTU21D;68546;59.142;37.948;2023-04-01T05:23:21;2.11;63.56
79140;HTU21D;68546;59.142;37.948;2023-04-01T05:25:49;2.16;63.43
79140;HTU21D;68546;59.142;37.948;2023-04-01T05:28:17;2.24;63.50
79140;HTU21D;68546;59.142;37.948;2023-04-01T05:30:49;2.29;63.52
79140;HTU21D;68546;59.142;37.948;2023-04-01T05:33:21;2.37;63.56
79140;HTU21D;68546;59.142;37.948;2023-04-01T05:35:48;2.45;63.47
79140;HTU21D;68546;59.142;37.948;2023-04-01T05:38:15;2.53;63.50
79140;HTU21D;68546;59.142;37.948;2023-04-01T05:40:41;2.61;63.69
79140;HTU21D;68546;59.142;37.948;2023-04-01T05:43:08;2.70;63.50
79140;HTU21D;68546;59.142;37.948;2023-04-01T05:45:36;2.81;63.42
79140;HTU21D;68546;59.142;37.948;2023-04-01T05:48:11;2.91;63.31
79140;HTU21D;68546;59.142;37.948;2023-04-01T05:50:41;2.99;63.24
79140;HTU21D;68546;59.142;37.948;2023-04-01T05:53:09;3.10;63.21
79140;HTU21D;68546;59.142;37.948;2023-04-01T05:55:37;3.18;63.18
79140;HTU21D;68546;59.142;37.948;2023-04-01T05:58:05;3.27;62.99
79140;HTU21D;68546;59.142;37.948;2023-04-01T06:00:32;3.35;62.92
79140;HTU21D;68546;59.142;37.948;2023-04-01T06:03:00;3.44;62.82
79140;HTU21D;68546;59.142;37.948;2023-04-01T06:05:40;3.54;62.74
79140;HTU21D;68546;59.142;37.948;2023-04-01T06:08:15;3.63;62.50
79140;HTU21D;68546;59.142;37.948;2023-04-01T06:14:08;3.82;61.99
79140;HTU21D;68546;59.142;37.948;2023-04-01T06:28:39;4.20;61.14
79140;HTU21D;68546;59.142;37.948;2023-04-01T06:31:18;4.29;60.78
79140;HTU21D;68546;59.142;37.948;2023-04-01T06:34:17;4.36;60.70
79140;HTU21D;68546;59.142;37.948;2023-04-01T06:54:40;4.86;59.05
79140;HTU21D;68546;59.142;37.948;2023-04-01T06:57:41;4.93;58.83
79140;HTU21D;68546;59.142;37.948;2023-04-01T07:00:29;5.01;58.52
79140;HTU21D;68546;59.142;37.948;2023-04-01T07:03:23;5.05;58.50
79140;HTU21D;68546;59.142;37.948;2023-04-01T07:05:54;5.12;57.96
79140;HTU21D;68546;59.142;37.948;2023-04-01T07:08:27;5.20;57.80
79140;HTU21D;68546;59.142;37.948;2023-04-01T07:11:03;5.27;57.89
79140;HTU21D;68546;59.142;37.948;2023-04-01T07:13:53;5.37;58.02
79140;HTU21D;68546;59.142;37.948;2023-04-01T07:16:47;5.48;57.91
79140;HTU21D;68546;59.142;37.948;2023-04-01T07:19:20;5.56;57.60
79140;HTU21D;68546;59.142;37.948;2023-04-01T07:25:27;5.76;57.36
79140;HTU21D;68546;59.142;37.948;2023-04-01T07:28:16;5.85;57.10
79140;HTU21D;68546;59.142;37.948;2023-04-01T07:36:28;6.09;55.91
79140;HTU21D;68546;59.142;37.948;2023-04-01T07:39:12;6.16;55.53
79140;HTU21D;68546;59.142;37.948;2023-04-01T07:42:38;6.25;55.62
79140;HTU21D;68546;59.142;37.948;2023-04-01T07:45:48;6.35;55.10
79140;HTU21D;68546;59.142;37.948;2023-04-01T07:51:17;6.48;53.69
79140;HTU21D;68546;59.142;37.948;2023-04-01T07:54:00;6.51;53.45
79140;HTU21D;68546;59.142;37.948;2023-04-01T07:56:45;6.57;53.14
79140;HTU21D;68546;59.142;37.948;2023-04-01T08:05:26;6.72;52.59
79140;HTU21D;68546;59.142;37.948;2023-04-01T08:08:10;6.75;51.87
79140;HTU21D;68546;59.142;37.948;2023-04-01T08:17:14;6.89;50.47
79140;HTU21D;68546;59.142;37.948;2023-04-01T08:20:14;6.95;49.66
79140;HTU21D;68546;59.142;37.948;2023-04-01T08:22:51;7.01;48.90
79140;HTU21D;68546;59.142;37.948;2023-04-01T08:25:27;7.03;48.90
79140;HTU21D;68546;59.142;37.948;2023-04-01T08:28:10;7.10;48.66
79140;HTU21D;68546;59.142;37.948;2023-04-01T08:33:37;7.22;48.78
79140;HTU21D;68546;59.142;37.948;2023-04-01T08:36:21;7.28;48.25
79140;HTU21D;68546;59.142;37.948;2023-04-01T08:39:09;7.34;48.05
79140;HTU21D;68546;59.142;37.948;2023-04-01T08:48:25;7.47;47.37
79140;HTU21D;68546;59.142;37.948;2023-04-01T08:56:33;7.56;44.96
79140;HTU21D;68546;59.142;37.948;2023-04-01T09:10:59;7.69;44.93
79140;HTU21D;68546;59.142;37.948;2023-04-01T09:14:11;7.71;44.58
79140;HTU21D;68546;59.142;37.948;2023-04-01T09:19:50;7.82;44.25
79140;HTU21D;68546;59.142;37.948;2023-04-01T09:22:46;7.87;43.90
79140;HTU21D;68546;59.142;37.948;2023-04-01T09:28:13;7.92;43.35
79140;HTU21D;68546;59.142;37.948;2023-04-01T09:31:05;7.94;43.71
79140;HTU21D;68546;59.142;37.948;2023-04-01T09:43:04;8.05;42.81
79140;HTU21D;68546;59.142;37.948;2023-04-01T10:06:10;8.51;42.22
79140;HTU21D;68546;59.142;37.948;2023-04-01T10:19:43;8.83;39.91
79140;HTU21D;68546;59.142;37.948;2023-04-01T10:23:01;8.89;39.78
79140;HTU21D;68546;59.142;37.948;2023-04-01T10:31:49;8.98;39.04
79140;HTU21D;68546;59.142;37.948;2023-04-01T10:37:15;9.05;38.82
79140;HTU21D;68546;59.142;37.948;2023-04-01T10:40:31;9.08;38.98
79140;HTU21D;68546;59.142;37.948;2023-04-01T10:43:56;9.10;38.85
79140;HTU21D;68546;59.142;37.948;2023-04-01T10:52:29;9.14;38.20
79140;HTU21D;68546;59.142;37.948;2023-04-01T10:55:44;9.11;37.94
79140;HTU21D;68546;59.142;37.948;2023-04-01T10:58:51;9.16;38.31
79140;HTU21D;68546;59.142;37.948;2023-04-01T11:11:22;9.25;38.14
79140;HTU21D;68546;59.142;37.948;2023-04-01T11:30:48;9.56;37.61
79140;HTU21D;68546;59.142;37.948;2023-04-01T11:33:36;9.62;37.59
79140;HTU21D;68546;59.142;37.948;2023-04-01T11:36:37;9.71;37.63
79140;HTU21D;68546;59.142;37.948;2023-04-01T11:56:24;10.04;36.37
79140;HTU21D;68546;59.142;37.948;2023-04-01T12:02:09;10.13;36.00
79140;HTU21D;68546;59.142;37.948;2023-04-01T12:04:49;10.16;35.71
79140;HTU21D;68546;59.142;37.948;2023-04-01T12:10:47;10.30;36.11
79140;HTU21D;68546;59.142;37.948;2023-04-01T12:16:13;10.41;35.66
79140;HTU21D;68546;59.142;37.948;2023-04-01T12:21:38;10.53;35.57
79140;HTU21D;68546;59.142;37.948;2023-04-01T12:38:42;10.80;35.15
79140;HTU21D;68546;59.142;37.948;2023-04-01T12:46:51;10.87;34.15
79140;HTU21D;68546;59.142;37.948;2023-04-01T12:52:19;10.88;34.15
79140;HTU21D;68546;59.142;37.948;2023-04-01T13:20:36;10.93;33.89
79140;HTU21D;68546;59.142;37.948;2023-04-01T13:23:24;10.94;33.25
79140;HTU21D;68546;59.142;37.948;2023-04-01T13:26:13;10.89;33.43
79140;HTU21D;68546;59.142;37.948;2023-04-01T13:28:56;10.88;33.45
79140;HTU21D;68546;59.142;37.948;2023-04-01T13:31:32;10.87;33.54
79140;HTU21D;68546;59.142;37.948;2023-04-01T13:41:00;10.85;32.90
79140;HTU21D;68546;59.142;37.948;2023-04-01T13:43:22;10.82;32.89
79140;HTU21D;68546;59.142;37.948;2023-04-01T13:52:06;10.74;33.03
79140;HTU21D;68546;59.142;37.948;2023-04-01T13:57:48;10.75;33.32
79140;HTU21D;68546;59.142;37.948;2023-04-01T14:03:28;10.78;33.11
79140;HTU21D;68546;59.142;37.948;2023-04-01T14:06:13;10.75;32.91
79140;HTU21D;68546;59.142;37.948;2023-04-01T14:11:25;10.72;32.83
79140;HTU21D;68546;59.142;37.948;2023-04-01T14:24:17;10.56;32.19
79140;HTU21D;68546;59.142;37.948;2023-04-01T14:32:33;10.40;32.57
79140;HTU21D;68546;59.142;37.948;2023-04-01T14:35:21;10.35;32.67
79140;HTU21D;68546;59.142;37.948;2023-04-01T14:49:22;10.12;32.86
79140;HTU21D;68546;59.142;37.948;2023-04-01T14:51:50;10.10;32.91
79140;HTU21D;68546;59.142;37.948;2023-04-01T14:54:32;10.06;32.89
79140;HTU21D;68546;59.142;37.948;2023-04-01T14:57:15;10.03;32.92
79140;HTU21D;68546;59.142;37.948;2023-04-01T14:59:49;9.99;32.94
79140;HTU21D;68546;59.142;37.948;2023-04-01T15:10:49;9.85;33.09
79140;HTU21D;68546;59.142;37.948;2023-04-01T15:16:55;9.78;33.20
79140;HTU21D;68546;59.142;37.948;2023-04-01T15:22:43;9.67;33.25
79140;HTU21D;68546;59.142;37.948;2023-04-01T15:30:59;9.59;33.59
79140;HTU21D;68546;59.142;37.948;2023-04-01T15:33:49;9.55;33.70
79140;HTU21D;68546;59.142;37.948;2023-04-01T15:39:13;9.49;34.18
79140;HTU21D;68546;59.142;37.948;2023-04-01T15:44:58;9.40;34.68
79140;HTU21D;68546;59.142;37.948;2023-04-01T16:01:27;9.03;36.82
79140;HTU21D;68546;59.142;37.948;2023-04-01T16:09:56;8.76;38.39
79140;HTU21D;68546;59.142;37.948;2023-04-01T16:12:42;8.66;39.12
79140;HTU21D;68546;59.142;37.948;2023-04-01T16:21:09;8.41;40.20
79140;HTU21D;68546;59.142;37.948;2023-04-01T16:24:23;8.35;40.11
79140;HTU21D;68546;59.142;37.948;2023-04-01T16:26:55;8.28;40.94
79140;HTU21D;68546;59.142;37.948;2023-04-01T16:37:59;8.03;42.17
79140;HTU21D;68546;59.142;37.948;2023-04-01T16:40:47;7.99;42.07
79140;HTU21D;68546;59.142;37.948;2023-04-01T16:54:18;7.74;43.68
79140;HTU21D;68546;59.142;37.948;2023-04-01T16:56:55;7.71;44.03
79140;HTU21D;68546;59.142;37.948;2023-04-01T16:59:40;7.67;44.45
79140;HTU21D;68546;59.142;37.948;2023-04-01T17:02:16;7.63;44.54
79140;HTU21D;68546;59.142;37.948;2023-04-01T17:04:58;7.59;44.70
79140;HTU21D;68546;59.142;37.948;2023-04-01T17:07:48;7.56;44.67
79140;HTU21D;68546;59.142;37.948;2023-04-01T17:19:42;7.44;45.41
79140;HTU21D;68546;59.142;37.948;2023-04-01T17:24:35;7.37;45.69
79140;HTU21D;68546;59.142;37.948;2023-04-01T17:27:10;7.32;46.10
79140;HTU21D;68546;59.142;37.948;2023-04-01T17:35:04;7.25;46.48
79140;HTU21D;68546;59.142;37.948;2023-04-01T17:49:42;7.16;47.19
79140;HTU21D;68546;59.142;37.948;2023-04-01T17:52:32;7.15;47.41
79140;HTU21D;68546;59.142;37.948;2023-04-01T18:01:15;7.08;47.91
79140;HTU21D;68546;59.142;37.948;2023-04-01T18:03:53;7.05;47.87
79140;HTU21D;68546;59.142;37.948;2023-04-01T18:23:40;6.90;48.78
79140;HTU21D;68546;59.142;37.948;2023-04-01T18:26:18;6.87;49.25
79140;HTU21D;68546;59.142;37.948;2023-04-01T18:28:59;6.85;49.46
79140;HTU21D;68546;59.142;37.948;2023-04-01T18:31:43;6.85;49.41
79140;HTU21D;68546;59.142;37.948;2023-04-01T18:37:11;6.83;49.78
79140;HTU21D;68546;59.142;37.948;2023-04-01T18:39:41;6.81;49.95
79140;HTU21D;68546;59.142;37.948;2023-04-01T18:51:25;6.78;50.11
79140;HTU21D;68546;59.142;37.948;2023-04-01T18:54:05;6.76;50.45
79140;HTU21D;68546;59.142;37.948;2023-04-01T18:56:35;6.76;50.60
79140;HTU21D;68546;59.142;37.948;2023-04-01T19:01:51;6.74;50.82
79140;HTU21D;68546;59.142;37.948;2023-04-01T19:06:59;6.75;51.12
79140;HTU21D;68546;59.142;37.948;2023-04-01T19:09:48;6.73;50.97
79140;HTU21D;68546;59.142;37.948;2023-04-01T19:19:07;6.66;51.19
79140;HTU21D;68546;59.142;37.948;2023-04-01T19:21:21;6.64;51.55
79140;HTU21D;68546;59.142;37.948;2023-04-01T19:24:25;6.64;51.54
79140;HTU21D;68546;59.142;37.948;2023-04-01T19:27:06;6.61;51.91
79140;HTU21D;68546;59.142;37.948;2023-04-01T19:43:44;6.58;52.40
79140;HTU21D;68546;59.142;37.948;2023-04-01T19:54:58;6.56;52.82
79140;HTU21D;68546;59.142;37.948;2023-04-01T19:57:38;6.56;53.08
79140;HTU21D;68546;59.142;37.948;2023-04-01T20:11:24;6.56;53.49
79140;HTU21D;68546;59.142;37.948;2023-04-01T20:14:23;6.54;53.43
79140;HTU21D;68546;59.142;37.948;2023-04-01T20:19:50;6.52;53.96
79140;HTU21D;68546;59.142;37.948;2023-04-01T20:22:37;6.53;53.96
79140;HTU21D;68546;59.142;37.948;2023-04-01T20:28:12;6.50;53.88
79140;HTU21D;68546;59.142;37.948;2023-04-01T20:44:42;6.30;54.15
79140;HTU21D;68546;59.142;37.948;2023-04-01T20:53:07;6.21;54.66
79140;HTU21D;68546;59.142;37.948;2023-04-01T20:55:58;6.17;54.52
79140;HTU21D;68546;59.142;37.948;2023-04-01T21:01:25;6.11;54.98
79140;HTU21D;68546;59.142;37.948;2023-04-01T21:07:06;6.08;55.00
79140;HTU21D;68546;59.142;37.948;2023-04-01T21:31:47;5.94;55.84
79140;HTU21D;68546;59.142;37.948;2023-04-01T21:39:57;5.89;56.39
79140;HTU21D;68546;59.142;37.948;2023-04-01T21:45:06;5.89;56.76
79140;HTU21D;68546;59.142;37.948;2023-04-01T21:53:30;5.90;56.90
79140;HTU21D;68546;59.142;37.948;2023-04-01T22:01:44;5.91;57.28
79140;HTU21D;68546;59.142;37.948;2023-04-01T22:06:51;5.90;57.30
79140;HTU21D;68546;59.142;37.948;2023-04-01T22:18:08;5.86;57.51
79140;HTU21D;68546;59.142;37.948;2023-04-01T22:20:29;5.85;57.42
79140;HTU21D;68546;59.142;37.948;2023-04-01T22:23:20;5.84;57.48
79140;HTU21D;68546;59.142;37.948;2023-04-01T22:28:59;5.81;57.53
79140;HTU21D;68546;59.142;37.948;2023-04-01T22:34:15;5.79;57.90
79140;HTU21D;68546;59.142;37.948;2023-04-01T22:40:32;5.76;57.87
79140;HTU21D;68546;59.142;37.948;2023-04-01T22:48:40;5.75;58.38
79140;HTU21D;68546;59.142;37.948;2023-04-01T22:51:42;5.77;58.36
79140;HTU21D;68546;59.142;37.948;2023-04-01T22:54:22;5.76;58.48
79140;HTU21D;68546;59.142;37.948;2023-04-01T22:56:55;5.78;58.63
79140;HTU21D;68546;59.142;37.948;2023-04-01T22:59:39;5.79;58.56
79140;HTU21D;68546;59.142;37.948;2023-04-01T23:02:14;5.80;58.75
79140;HTU21D;68546;59.142;37.948;2023-04-01T23:04:47;5.81;58.79
79140;HTU21D;68546;59.142;37.948;2023-04-01T23:09:56;5.81;58.83
79140;HTU21D;68546;59.142;37.948;2023-04-01T23:12:24;5.81;58.87
79140;HTU21D;68546;59.142;37.948;2023-04-01T23:14:55;5.82;58.92
79140;HTU21D;68546;59.142;37.948;2023-04-01T23:26:12;5.76;58.85
79140;HTU21D;68546;59.142;37.948;2023-04-01T23:28:55;5.75;58.87
79140;HTU21D;68546;59.142;37.948;2023-04-01T23:31:40;5.74;58.94
79140;HTU21D;68546;59.142;37.948;2023-04-01T23:36:46;5.70;58.97
79140;HTU21D;68546;59.142;37.948;2023-04-01T23:41:52;5.68;58.90
79140;HTU21D;68546;59.142;37.948;2023-04-01T23:44:20;5.65;58.80
79140;HTU21D;68546;59.142;37.948;2023-04-01T23:46:48;5.63;58.72
79140;HTU21D;68546;59.142;37.948;2023-04-01T23:50:20;5.60;58.72
79140;HTU21D;68546;59.142;37.948;2023-04-01T23:57:34;5.53;58.76
